sensor_id;sensor_type;location;lat;lon;timestamp;temperature;humidity
2409;DHT22;8463;48.094;7.970;2023-03-23T00:01:09;12.70;20.10
2409;DHT22;8463;48.094;7.970;2023-03-23T00:03:36;12.80;19.80
2409;DHT22;8463;48.094;7.970;2023-03-23T00:06:03;12.80;19.80
2409;DHT22;8463;48.094;7.970;2023-03-23T00:08:30;12.80;19.90
2409;DHT22;8463;48.094;7.970;2023-03-23T00:10:56;12.80;20.20
2409;DHT22;8463;48.094;7.970;2023-03-23T00:13:28;12.80;20.90
2409;DHT22;8463;48.094;7.970;2023-03-23T00:15:54;12.90;21.10
2409;DHT22;8463;48.094;7.970;2023-03-23T00:18:22;12.80;21.30
2409;DHT22;8463;48.094;7.970;2023-03-23T00:20:53;12.80;20.90
2409;DHT22;8463;48.094;7.970;2023-03-23T00:23:20;12.80;21.70
2409;DHT22;8463;48.094;7.970;2023-03-23T00:25:52;12.80;22.30
2409;DHT22;8463;48.094;7.970;2023-03-23T00:28:19;12.80;21.90
2409;DHT22;8463;48.094;7.970;2023-03-23T00:31:02;12.80;22.80
2409;DHT22;8463;48.094;7.970;2023-03-23T00:33:31;12.80;23.20
2409;DHT22;8463;48.094;7.970;2023-03-23T00:36:04;12.70;22.90
2409;DHT22;8463;48.094;7.970;2023-03-23T00:38:30;12.60;23.40
2409;DHT22;8463;48.094;7.970;2023-03-23T00:40:58;12.60;23.90
2409;DHT22;8463;48.094;7.970;2023-03-23T00:43:29;12.60;24.50
2409;DHT22;8463;48.094;7.970;2023-03-23T00:45:56;12.60;24.40
2409;DHT22;8463;48.094;7.970;2023-03-23T00:48:23;12.60;24.70
2409;DHT22;8463;48.094;7.970;2023-03-23T00:50:50;12.50;25.20
2409;DHT22;8463;48.094;7.970;2023-03-23T00:53:17;12.60;25.30
2409;DHT22;8463;48.094;7.970;2023-03-23T00:55:46;12.50;26.20
2409;DHT22;8463;48.094;7.970;2023-03-23T00:58:13;12.50;26.60
2409;DHT22;8463;48.094;7.970;2023-03-23T01:00:39;12.50;26.50
2409;DHT22;8463;48.094;7.970;2023-03-23T01:03:06;12.60;27.00
2409;DHT22;8463;48.094;7.970;2023-03-23T01:05:36;12.50;27.20
2409;DHT22;8463;48.094;7.970;2023-03-23T01:08:03;12.50;27.80
2409;DHT22;8463;48.094;7.970;2023-03-23T01:10:30;12.50;28.20
2409;DHT22;8463;48.094;7.970;2023-03-23T01:12:58;12.40;29.00
2409;DHT22;8463;48.094;7.970;2023-03-23T01:15:24;12.40;29.60
2409;DHT22;8463;48.094;7.970;2023-03-23T01:17:49;12.40;29.90
2409;DHT22;8463;48.094;7.970;2023-03-23T01:20:17;12.40;29.80
2409;DHT22;8463;48.094;7.970;2023-03-23T01:22:43;12.40;30.20
2409;DHT22;8463;48.094;7.970;2023-03-23T01:25:11;12.40;30.00
2409;DHT22;8463;48.094;7.970;2023-03-23T01:27:37;12.40;30.40
2409;DHT22;8463;48.094;7.970;2023-03-23T01:30:04;12.30;32.40
2409;DHT22;8463;48.094;7.970;2023-03-23T01:32:31;12.30;33.80
2409;DHT22;8463;48.094;7.970;2023-03-23T01:34:56;12.30;35.70
2409;DHT22;8463;48.094;7.970;2023-03-23T01:37:22;12.30;35.20
2409;DHT22;8463;48.094;7.970;2023-03-23T01:39:55;12.20;35.80
2409;DHT22;8463;48.094;7.970;2023-03-23T01:42:26;12.00;39.30
2409;DHT22;8463;48.094;7.970;2023-03-23T01:47:21;12.10;39.10
2409;DHT22;8463;48.094;7.970;2023-03-23T01:49:49;12.20;39.70
2409;DHT22;8463;48.094;7.970;2023-03-23T01:52:26;12.10;39.50
2409;DHT22;8463;48.094;7.970;2023-03-23T01:54:55;12.20;38.80
2409;DHT22;8463;48.094;7.970;2023-03-23T01:57:23;12.20;39.10
2409;DHT22;8463;48.094;7.970;2023-03-23T01:59:53;12.00;37.60
2409;DHT22;8463;48.094;7.970;2023-03-23T02:02:22;12.00;38.30
2409;DHT22;8463;48.094;7.970;2023-03-23T02:04:48;11.90;39.20
2409;DHT22;8463;48.094;7.970;2023-03-23T02:07:17;12.00;39.50
2409;DHT22;8463;48.094;7.970;2023-03-23T02:09:44;11.90;39.60
2409;DHT22;8463;48.094;7.970;2023-03-23T02:12:10;11.90;39.40
2409;DHT22;8463;48.094;7.970;2023-03-23T02:14:36;12.00;38.70
2409;DHT22;8463;48.094;7.970;2023-03-23T02:17:14;11.90;39.10
2409;DHT22;8463;48.094;7.970;2023-03-23T02:25:05;12.10;38.80
2409;DHT22;8463;48.094;7.970;2023-03-23T02:31:00;11.90;39.00
2409;DHT22;8463;48.094;7.970;2023-03-23T02:35:52;11.90;40.10
2409;DHT22;8463;48.094;7.970;2023-03-23T02:38:25;11.90;39.10
2409;DHT22;8463;48.094;7.970;2023-03-23T02:40:53;12.00;38.90
2409;DHT22;8463;48.094;7.970;2023-03-23T02:43:22;12.00;38.40
2409;DHT22;8463;48.094;7.970;2023-03-23T02:45:50;12.10;37.30
2409;DHT22;8463;48.094;7.970;2023-03-23T02:48:22;12.10;36.70
2409;DHT22;8463;48.094;7.970;2023-03-23T02:50:51;12.10;36.30
2409;DHT22;8463;48.094;7.970;2023-03-23T02:53:22;12.00;38.30
2409;DHT22;8463;48.094;7.970;2023-03-23T02:55:50;12.00;38.30
2409;DHT22;8463;48.094;7.970;2023-03-23T02:58:20;12.00;38.40
2409;DHT22;8463;48.094;7.970;2023-03-23T03:00:49;11.80;40.10
2409;DHT22;8463;48.094;7.970;2023-03-23T03:03:20;11.80;42.80
2409;DHT22;8463;48.094;7.970;2023-03-23T03:11:12;11.90;41.50
2409;DHT22;8463;48.094;7.970;2023-03-23T03:16:40;11.90;42.00
2409;DHT22;8463;48.094;7.970;2023-03-23T03:19:17;11.90;41.50
2409;DHT22;8463;48.094;7.970;2023-03-23T03:21:46;11.90;42.00
2409;DHT22;8463;48.094;7.970;2023-03-23T03:24:17;11.90;42.50
2409;DHT22;8463;48.094;7.970;2023-03-23T03:26:46;12.00;41.20
2409;DHT22;8463;48.094;7.970;2023-03-23T03:29:18;12.00;39.40
2409;DHT22;8463;48.094;7.970;2023-03-23T03:31:46;12.00;38.60
2409;DHT22;8463;48.094;7.970;2023-03-23T03:34:14;11.90;39.70
2409;DHT22;8463;48.094;7.970;2023-03-23T03:36:46;12.00;40.20
2409;DHT22;8463;48.094;7.970;2023-03-23T03:39:14;11.90;40.10
2409;DHT22;8463;48.094;7.970;2023-03-23T03:41:41;11.90;40.70
2409;DHT22;8463;48.094;7.970;2023-03-23T03:44:08;11.90;40.60
2409;DHT22;8463;48.094;7.970;2023-03-23T03:46:35;11.90;41.20
2409;DHT22;8463;48.094;7.970;2023-03-23T03:49:02;11.90;30.80
2409;DHT22;8463;48.094;7.970;2023-03-23T03:51:31;11.90;31.50
2409;DHT22;8463;48.094;7.970;2023-03-23T03:53:58;11.90;31.70
2409;DHT22;8463;48.094;7.970;2023-03-23T03:56:24;12.00;34.50
2409;DHT22;8463;48.094;7.970;2023-03-23T03:58:50;12.10;35.60
2409;DHT22;8463;48.094;7.970;2023-03-23T04:01:17;12.00;36.20
2409;DHT22;8463;48.094;7.970;2023-03-23T04:03:45;12.00;35.60
2409;DHT22;8463;48.094;7.970;2023-03-23T04:06:11;12.10;35.60
2409;DHT22;8463;48.094;7.970;2023-03-23T04:08:40;12.10;35.10
2409;DHT22;8463;48.094;7.970;2023-03-23T04:11:07;12.00;35.50
2409;DHT22;8463;48.094;7.970;2023-03-23T04:13:33;12.10;35.60
2409;DHT22;8463;48.094;7.970;2023-03-23T04:15:59;12.40;20.00
2409;DHT22;8463;48.094;7.970;2023-03-23T04:18:26;12.40;19.90
2409;DHT22;8463;48.094;7.970;2023-03-23T04:20:51;12.70;18.00
2409;DHT22;8463;48.094;7.970;2023-03-23T04:23:21;13.00;13.10
2409;DHT22;8463;48.094;7.970;2023-03-23T04:25:48;13.30;11.20
2409;DHT22;8463;48.094;7.970;2023-03-23T04:28:16;14.10;3.30
2409;DHT22;8463;48.094;7.970;2023-03-23T04:30:49;14.00;3.60
2409;DHT22;8463;48.094;7.970;2023-03-23T04:33:18;14.40;1.00
2409;DHT22;8463;48.094;7.970;2023-03-23T04:35:45;15.30;1.00
2409;DHT22;8463;48.094;7.970;2023-03-23T04:38:16;15.30;1.00
2409;DHT22;8463;48.094;7.970;2023-03-23T04:40:46;15.30;1.00
2409;DHT22;8463;48.094;7.970;2023-03-23T04:43:12;15.10;1.00
2409;DHT22;8463;48.094;7.970;2023-03-23T04:45:40;15.10;1.00
2409;DHT22;8463;48.094;7.970;2023-03-23T04:48:07;15.10;1.00
2409;DHT22;8463;48.094;7.970;2023-03-23T04:50:34;15.20;1.00
2409;DHT22;8463;48.094;7.970;2023-03-23T04:53:01;15.20;1.00
2409;DHT22;8463;48.094;7.970;2023-03-23T04:55:34;15.30;1.00
2409;DHT22;8463;48.094;7.970;2023-03-23T04:58:06;15.30;1.00
2409;DHT22;8463;48.094;7.970;2023-03-23T05:00:33;15.30;1.00
2409;DHT22;8463;48.094;7.970;2023-03-23T05:02:59;15.40;1.00
2409;DHT22;8463;48.094;7.970;2023-03-23T05:05:27;15.70;1.00
2409;DHT22;8463;48.094;7.970;2023-03-23T05:07:55;15.70;1.00
2409;DHT22;8463;48.094;7.970;2023-03-23T05:10:21;15.80;1.00
2409;DHT22;8463;48.094;7.970;2023-03-23T05:12:47;15.70;1.00
2409;DHT22;8463;48.094;7.970;2023-03-23T05:15:14;15.90;1.00
2409;DHT22;8463;48.094;7.970;2023-03-23T05:17:41;16.10;1.00
2409;DHT22;8463;48.094;7.970;2023-03-23T05:20:13;15.90;1.00
2409;DHT22;8463;48.094;7.970;2023-03-23T05:22:41;15.80;1.00
2409;DHT22;8463;48.094;7.970;2023-03-23T05:25:08;15.90;1.00
2409;DHT22;8463;48.094;7.970;2023-03-23T05:27:37;15.80;1.00
2409;DHT22;8463;48.094;7.970;2023-03-23T05:30:04;15.80;1.00
2409;DHT22;8463;48.094;7.970;2023-03-23T05:32:30;15.90;1.00
2409;DHT22;8463;48.094;7.970;2023-03-23T05:34:57;15.90;1.00
2409;DHT22;8463;48.094;7.970;2023-03-23T05:37:23;15.90;1.00
2409;DHT22;8463;48.094;7.970;2023-03-23T05:39:49;15.80;1.00
2409;DHT22;8463;48.094;7.970;2023-03-23T05:42:22;15.80;1.00
2409;DHT22;8463;48.094;7.970;2023-03-23T05:44:48;15.90;1.00
2409;DHT22;8463;48.094;7.970;2023-03-23T05:47:14;15.90;1.00
2409;DHT22;8463;48.094;7.970;2023-03-23T05:49:40;16.00;1.00
2409;DHT22;8463;48.094;7.970;2023-03-23T05:52:06;16.00;1.00
2409;DHT22;8463;48.094;7.970;2023-03-23T05:54:32;15.90;1.00
2409;DHT22;8463;48.094;7.970;2023-03-23T05:56:59;15.90;1.00
2409;DHT22;8463;48.094;7.970;2023-03-23T05:59:25;15.90;1.00
2409;DHT22;8463;48.094;7.970;2023-03-23T06:01:51;16.00;1.00
2409;DHT22;8463;48.094;7.970;2023-03-23T06:04:19;15.80;1.00
2409;DHT22;8463;48.094;7.970;2023-03-23T06:06:45;15.70;1.00
2409;DHT22;8463;48.094;7.970;2023-03-23T06:09:12;15.70;1.00
2409;DHT22;8463;48.094;7.970;2023-03-23T06:11:38;15.80;1.00
2409;DHT22;8463;48.094;7.970;2023-03-23T06:14:06;15.70;1.00
2409;DHT22;8463;48.094;7.970;2023-03-23T06:16:32;15.70;1.00
2409;DHT22;8463;48.094;7.970;2023-03-23T06:18:57;15.70;1.00
2409;DHT22;8463;48.094;7.970;2023-03-23T06:21:26;15.70;1.00
2409;DHT22;8463;48.094;7.970;2023-03-23T06:26:19;15.50;1.00
2409;DHT22;8463;48.094;7.970;2023-03-23T06:33:38;15.50;1.00
2409;DHT22;8463;48.094;7.970;2023-03-23T06:36:06;15.40;1.00
2409;DHT22;8463;48.094;7.970;2023-03-23T06:38:32;15.40;1.00
2409;DHT22;8463;48.094;7.970;2023-03-23T06:40:58;15.40;1.00
2409;DHT22;8463;48.094;7.970;2023-03-23T06:43:23;15.40;1.00
2409;DHT22;8463;48.094;7.970;2023-03-23T06:45:50;15.40;1.00
2409;DHT22;8463;48.094;7.970;2023-03-23T06:48:16;15.40;1.00
2409;DHT22;8463;48.094;7.970;2023-03-23T06:50:43;15.30;1.00
2409;DHT22;8463;48.094;7.970;2023-03-23T06:53:10;15.40;1.00
2409;DHT22;8463;48.094;7.970;2023-03-23T06:55:36;15.40;1.00
2409;DHT22;8463;48.094;7.970;2023-03-23T06:58:03;15.30;1.00
2409;DHT22;8463;48.094;7.970;2023-03-23T07:00:29;15.30;1.00
2409;DHT22;8463;48.094;7.970;2023-03-23T07:02:55;15.30;1.00
2409;DHT22;8463;48.094;7.970;2023-03-23T07:05:21;15.30;1.00
2409;DHT22;8463;48.094;7.970;2023-03-23T07:07:47;15.20;1.00
2409;DHT22;8463;48.094;7.970;2023-03-23T07:10:12;15.30;1.00
2409;DHT22;8463;48.094;7.970;2023-03-23T07:12:38;15.20;1.00
2409;DHT22;8463;48.094;7.970;2023-03-23T07:15:06;15.20;1.00
2409;DHT22;8463;48.094;7.970;2023-03-23T07:17:34;15.10;1.00
2409;DHT22;8463;48.094;7.970;2023-03-23T07:20:00;15.10;1.00
2409;DHT22;8463;48.094;7.970;2023-03-23T07:22:26;15.10;1.00
2409;DHT22;8463;48.094;7.970;2023-03-23T07:24:51;15.20;1.00
2409;DHT22;8463;48.094;7.970;2023-03-23T07:27:17;15.20;1.00
2409;DHT22;8463;48.094;7.970;2023-03-23T07:29:42;15.10;1.00
2409;DHT22;8463;48.094;7.970;2023-03-23T07:32:11;15.00;1.10
2409;DHT22;8463;48.094;7.970;2023-03-23T07:34:37;14.90;1.00
2409;DHT22;8463;48.094;7.970;2023-03-23T07:37:03;14.80;1.90
2409;DHT22;8463;48.094;7.970;2023-03-23T07:39:29;14.80;2.00
2409;DHT22;8463;48.094;7.970;2023-03-23T07:41:55;14.60;5.50
2409;DHT22;8463;48.094;7.970;2023-03-23T07:44:21;14.60;5.90
2409;DHT22;8463;48.094;7.970;2023-03-23T07:46:47;14.50;5.90
2409;DHT22;8463;48.094;7.970;2023-03-23T07:49:13;14.40;9.30
2409;DHT22;8463;48.094;7.970;2023-03-23T07:51:39;14.40;10.00
2409;DHT22;8463;48.094;7.970;2023-03-23T07:54:06;14.20;10.40
2409;DHT22;8463;48.094;7.970;2023-03-23T07:56:34;14.10;10.50
2409;DHT22;8463;48.094;7.970;2023-03-23T07:59:00;14.10;11.90
2409;DHT22;8463;48.094;7.970;2023-03-23T08:01:26;14.00;13.00
2409;DHT22;8463;48.094;7.970;2023-03-23T08:03:52;14.00;13.30
2409;DHT22;8463;48.094;7.970;2023-03-23T08:06:20;13.90;13.30
2409;DHT22;8463;48.094;7.970;2023-03-23T08:08:47;13.90;13.30
2409;DHT22;8463;48.094;7.970;2023-03-23T08:11:12;13.90;13.30
2409;DHT22;8463;48.094;7.970;2023-03-23T08:13:43;14.00;13.00
2409;DHT22;8463;48.094;7.970;2023-03-23T08:16:10;13.90;14.50
2409;DHT22;8463;48.094;7.970;2023-03-23T08:18:36;14.00;13.00
2409;DHT22;8463;48.094;7.970;2023-03-23T08:21:03;14.00;13.30
2409;DHT22;8463;48.094;7.970;2023-03-23T08:23:33;14.00;13.00
2409;DHT22;8463;48.094;7.970;2023-03-23T08:25:59;14.00;11.50
2409;DHT22;8463;48.094;7.970;2023-03-23T08:28:26;14.00;12.50
2409;DHT22;8463;48.094;7.970;2023-03-23T08:30:51;14.00;13.00
2409;DHT22;8463;48.094;7.970;2023-03-23T08:33:18;14.00;15.30
2409;DHT22;8463;48.094;7.970;2023-03-23T08:35:44;13.90;15.20
2409;DHT22;8463;48.094;7.970;2023-03-23T08:38:11;13.80;16.70
2409;DHT22;8463;48.094;7.970;2023-03-23T08:40:37;13.80;16.70
2409;DHT22;8463;48.094;7.970;2023-03-23T08:43:05;13.80;16.10
2409;DHT22;8463;48.094;7.970;2023-03-23T08:45:31;13.80;16.60
2409;DHT22;8463;48.094;7.970;2023-03-23T08:47:57;13.90;16.10
2409;DHT22;8463;48.094;7.970;2023-03-23T08:50:27;13.80;16.50
2409;DHT22;8463;48.094;7.970;2023-03-23T08:52:53;13.70;17.10
2409;DHT22;8463;48.094;7.970;2023-03-23T08:55:21;13.80;18.20
2409;DHT22;8463;48.094;7.970;2023-03-23T08:57:47;13.70;19.30
2409;DHT22;8463;48.094;7.970;2023-03-23T09:00:18;13.80;16.80
2409;DHT22;8463;48.094;7.970;2023-03-23T09:02:47;13.80;17.50
2409;DHT22;8463;48.094;7.970;2023-03-23T09:05:17;13.80;17.00
2409;DHT22;8463;48.094;7.970;2023-03-23T09:07:49;13.90;15.50
2409;DHT22;8463;48.094;7.970;2023-03-23T09:10:15;13.90;15.40
2409;DHT22;8463;48.094;7.970;2023-03-23T09:12:42;13.90;16.30
2409;DHT22;8463;48.094;7.970;2023-03-23T09:15:10;14.00;16.40
2409;DHT22;8463;48.094;7.970;2023-03-23T09:17:40;13.90;16.90
2409;DHT22;8463;48.094;7.970;2023-03-23T09:20:08;14.00;16.80
2409;DHT22;8463;48.094;7.970;2023-03-23T09:22:38;14.00;17.20
2409;DHT22;8463;48.094;7.970;2023-03-23T09:25:04;14.10;17.50
2409;DHT22;8463;48.094;7.970;2023-03-23T09:27:30;13.90;18.70
2409;DHT22;8463;48.094;7.970;2023-03-23T09:29:55;14.00;19.00
2409;DHT22;8463;48.094;7.970;2023-03-23T09:32:21;14.00;21.20
2409;DHT22;8463;48.094;7.970;2023-03-23T09:34:48;14.00;21.90
2409;DHT22;8463;48.094;7.970;2023-03-23T09:37:13;14.00;19.50
2409;DHT22;8463;48.094;7.970;2023-03-23T09:39:39;14.10;15.80
2409;DHT22;8463;48.094;7.970;2023-03-23T09:50:34;14.60;10.70
2409;DHT22;8463;48.094;7.970;2023-03-23T09:53:17;14.80;9.60
2409;DHT22;8463;48.094;7.970;2023-03-23T09:55:44;14.80;10.50
2409;DHT22;8463;48.094;7.970;2023-03-23T09:58:27;14.80;9.60
2409;DHT22;8463;48.094;7.970;2023-03-23T10:01:21;14.90;10.30
2409;DHT22;8463;48.094;7.970;2023-03-23T10:03:56;14.90;10.00
2409;DHT22;8463;48.094;7.970;2023-03-23T10:06:23;14.90;8.60
2409;DHT22;8463;48.094;7.970;2023-03-23T10:08:52;15.00;5.00
2409;DHT22;8463;48.094;7.970;2023-03-23T10:14:06;15.00;5.00
2409;DHT22;8463;48.094;7.970;2023-03-23T10:16:37;15.10;3.10
2409;DHT22;8463;48.094;7.970;2023-03-23T10:19:25;15.10;3.10
2409;DHT22;8463;48.094;7.970;2023-03-23T10:21:59;15.10;3.10
2409;DHT22;8463;48.094;7.970;2023-03-23T10:24:35;15.20;3.10
2409;DHT22;8463;48.094;7.970;2023-03-23T10:32:51;15.40;1.00
2409;DHT22;8463;48.094;7.970;2023-03-23T10:35:24;15.40;1.00
2409;DHT22;8463;48.094;7.970;2023-03-23T10:37:56;15.50;1.00
2409;DHT22;8463;48.094;7.970;2023-03-23T10:40:27;15.70;1.00
2409;DHT22;8463;48.094;7.970;2023-03-23T10:42:57;15.80;1.00
2409;DHT22;8463;48.094;7.970;2023-03-23T10:45:28;15.80;1.00
2409;DHT22;8463;48.094;7.970;2023-03-23T10:48:17;15.90;1.00
2409;DHT22;8463;48.094;7.970;2023-03-23T10:50:48;16.00;1.00
2409;DHT22;8463;48.094;7.970;2023-03-23T10:53:19;16.00;1.00
2409;DHT22;8463;48.094;7.970;2023-03-23T10:55:46;16.00;1.00
2409;DHT22;8463;48.094;7.970;2023-03-23T11:00:55;16.10;1.00
2409;DHT22;8463;48.094;7.970;2023-03-23T11:03:25;16.10;1.00
2409;DHT22;8463;48.094;7.970;2023-03-23T11:06:03;16.10;1.00
2409;DHT22;8463;48.094;7.970;2023-03-23T11:08:35;16.20;1.00
2409;DHT22;8463;48.094;7.970;2023-03-23T11:11:19;16.20;1.00
2409;DHT22;8463;48.094;7.970;2023-03-23T11:13:48;16.30;1.00
2409;DHT22;8463;48.094;7.970;2023-03-23T11:16:29;16.40;1.00
2409;DHT22;8463;48.094;7.970;2023-03-23T11:18:58;16.40;1.00
2409;DHT22;8463;48.094;7.970;2023-03-23T11:21:25;16.40;1.00
2409;DHT22;8463;48.094;7.970;2023-03-23T11:23:59;16.40;1.00
2409;DHT22;8463;48.094;7.970;2023-03-23T11:26:28;16.50;1.00
2409;DHT22;8463;48.094;7.970;2023-03-23T11:31:38;16.50;1.00
2409;DHT22;8463;48.094;7.970;2023-03-23T11:36:42;16.60;1.00
2409;DHT22;8463;48.094;7.970;2023-03-23T11:42:23;16.70;1.00
2409;DHT22;8463;48.094;7.970;2023-03-23T11:44:53;16.80;1.00
2409;DHT22;8463;48.094;7.970;2023-03-23T11:47:43;16.80;1.00
2409;DHT22;8463;48.094;7.970;2023-03-23T11:50:29;16.80;1.00
2409;DHT22;8463;48.094;7.970;2023-03-23T11:58:15;16.80;1.00
2409;DHT22;8463;48.094;7.970;2023-03-23T12:00:50;16.80;1.00
2409;DHT22;8463;48.094;7.970;2023-03-23T12:03:43;16.80;1.00
2409;DHT22;8463;48.094;7.970;2023-03-23T12:06:14;16.80;1.00
2409;DHT22;8463;48.094;7.970;2023-03-23T12:09:07;16.80;1.00
2409;DHT22;8463;48.094;7.970;2023-03-23T12:14:40;16.80;1.00
2409;DHT22;8463;48.094;7.970;2023-03-23T12:30:54;16.60;1.00
2409;DHT22;8463;48.094;7.970;2023-03-23T12:45:07;16.60;1.00
2409;DHT22;8463;48.094;7.970;2023-03-23T12:47:42;16.70;1.00
2409;DHT22;8463;48.094;7.970;2023-03-23T12:50:20;16.70;1.00
2409;DHT22;8463;48.094;7.970;2023-03-23T12:53:17;16.60;1.00
2409;DHT22;8463;48.094;7.970;2023-03-23T12:56:04;16.60;1.00
2409;DHT22;8463;48.094;7.970;2023-03-23T12:58:38;16.70;1.00
2409;DHT22;8463;48.094;7.970;2023-03-23T13:01:18;16.70;1.00
2409;DHT22;8463;48.094;7.970;2023-03-23T13:04:11;16.70;1.00
2409;DHT22;8463;48.094;7.970;2023-03-23T13:06:39;16.70;1.00
2409;DHT22;8463;48.094;7.970;2023-03-23T13:11:43;16.80;1.00
2409;DHT22;8463;48.094;7.970;2023-03-23T13:14:37;16.80;1.00
2409;DHT22;8463;48.094;7.970;2023-03-23T13:17:27;16.80;1.00
2409;DHT22;8463;48.094;7.970;2023-03-23T13:28:18;16.80;1.00
2409;DHT22;8463;48.094;7.970;2023-03-23T13:31:11;16.80;1.00
2409;DHT22;8463;48.094;7.970;2023-03-23T13:33:38;16.80;1.00
2409;DHT22;8463;48.094;7.970;2023-03-23T13:36:14;16.70;1.00
2409;DHT22;8463;48.094;7.970;2023-03-23T13:38:48;16.60;1.00
2409;DHT22;8463;48.094;7.970;2023-03-23T13:41:18;16.60;1.00
2409;DHT22;8463;48.094;7.970;2023-03-23T13:43:45;16.50;1.00
2409;DHT22;8463;48.094;7.970;2023-03-23T13:54:24;16.40;1.00
2409;DHT22;8463;48.094;7.970;2023-03-23T13:57:00;16.40;1.00
2409;DHT22;8463;48.094;7.970;2023-03-23T14:01:54;16.40;1.00
2409;DHT22;8463;48.094;7.970;2023-03-23T14:04:21;16.40;1.00
2409;DHT22;8463;48.094;7.970;2023-03-23T14:06:49;16.40;1.00
2409;DHT22;8463;48.094;7.970;2023-03-23T14:09:24;16.40;1.00
2409;DHT22;8463;48.094;7.970;2023-03-23T14:14:31;16.40;1.00
2409;DHT22;8463;48.094;7.970;2023-03-23T14:17:11;16.40;1.00
2409;DHT22;8463;48.094;7.970;2023-03-23T14:19:39;16.40;1.00
2409;DHT22;8463;48.094;7.970;2023-03-23T14:22:22;16.30;1.00
2409;DHT22;8463;48.094;7.970;2023-03-23T14:24:49;16.40;1.00
2409;DHT22;8463;48.094;7.970;2023-03-23T14:27:26;16.40;1.00
2409;DHT22;8463;48.094;7.970;2023-03-23T14:29:59;16.40;1.00
2409;DHT22;8463;48.094;7.970;2023-03-23T14:32:28;16.40;1.00
2409;DHT22;8463;48.094;7.970;2023-03-23T14:35:08;16.40;1.00
2409;DHT22;8463;48.094;7.970;2023-03-23T14:37:38;16.40;1.00
2409;DHT22;8463;48.094;7.970;2023-03-23T14:40:04;16.30;1.00
2409;DHT22;8463;48.094;7.970;2023-03-23T14:42:35;16.30;1.00
2409;DHT22;8463;48.094;7.970;2023-03-23T14:45:04;16.30;1.00
2409;DHT22;8463;48.094;7.970;2023-03-23T14:47:45;16.20;1.00
2409;DHT22;8463;48.094;7.970;2023-03-23T14:52:51;16.20;1.00
2409;DHT22;8463;48.094;7.970;2023-03-23T14:55:20;16.20;1.00
2409;DHT22;8463;48.094;7.970;2023-03-23T14:57:47;16.20;1.00
2409;DHT22;8463;48.094;7.970;2023-03-23T15:00:25;16.20;1.00
2409;DHT22;8463;48.094;7.970;2023-03-23T15:02:56;16.20;1.00
2409;DHT22;8463;48.094;7.970;2023-03-23T15:05:29;16.30;1.00
2409;DHT22;8463;48.094;7.970;2023-03-23T15:08:02;16.30;1.00
2409;DHT22;8463;48.094;7.970;2023-03-23T15:10:29;16.30;1.00
2409;DHT22;8463;48.094;7.970;2023-03-23T15:12:55;16.30;1.00
2409;DHT22;8463;48.094;7.970;2023-03-23T15:15:33;16.30;1.00
2409;DHT22;8463;48.094;7.970;2023-03-23T15:18:01;16.40;1.00
2409;DHT22;8463;48.094;7.970;2023-03-23T15:20:43;16.40;1.00
2409;DHT22;8463;48.094;7.970;2023-03-23T15:23:16;16.40;1.00
2409;DHT22;8463;48.094;7.970;2023-03-23T15:25:50;16.40;1.00
2409;DHT22;8463;48.094;7.970;2023-03-23T15:28:19;16.30;1.00
2409;DHT22;8463;48.094;7.970;2023-03-23T15:30:51;16.30;1.00
2409;DHT22;8463;48.094;7.970;2023-03-23T15:33:19;16.30;1.00
2409;DHT22;8463;48.094;7.970;2023-03-23T15:35:52;16.20;1.00
2409;DHT22;8463;48.094;7.970;2023-03-23T15:40:53;16.30;1.00
2409;DHT22;8463;48.094;7.970;2023-03-23T15:43:22;16.20;1.00
2409;DHT22;8463;48.094;7.970;2023-03-23T15:45:59;16.20;1.00
2409;DHT22;8463;48.094;7.970;2023-03-23T15:48:44;16.10;1.00
2409;DHT22;8463;48.094;7.970;2023-03-23T15:51:10;16.10;1.00
2409;DHT22;8463;48.094;7.970;2023-03-23T15:56:06;15.90;2.40
2409;DHT22;8463;48.094;7.970;2023-03-23T15:58:32;15.80;2.30
2409;DHT22;8463;48.094;7.970;2023-03-23T16:01:02;15.70;2.30
2409;DHT22;8463;48.094;7.970;2023-03-23T16:06:13;15.60;1.80
2409;DHT22;8463;48.094;7.970;2023-03-23T16:08:41;15.60;2.40
2409;DHT22;8463;48.094;7.970;2023-03-23T16:11:10;15.60;2.10
2409;DHT22;8463;48.094;7.970;2023-03-23T16:13:36;15.60;2.40
2409;DHT22;8463;48.094;7.970;2023-03-23T16:16:02;15.60;2.60
2409;DHT22;8463;48.094;7.970;2023-03-23T16:18:29;15.60;2.10
2409;DHT22;8463;48.094;7.970;2023-03-23T16:20:56;15.60;2.20
2409;DHT22;8463;48.094;7.970;2023-03-23T16:23:22;15.50;2.70
2409;DHT22;8463;48.094;7.970;2023-03-23T16:25:48;15.50;3.50
2409;DHT22;8463;48.094;7.970;2023-03-23T16:28:14;15.50;2.60
2409;DHT22;8463;48.094;7.970;2023-03-23T16:30:42;15.50;2.70
2409;DHT22;8463;48.094;7.970;2023-03-23T16:33:08;15.50;3.30
2409;DHT22;8463;48.094;7.970;2023-03-23T16:35:34;15.50;3.70
2409;DHT22;8463;48.094;7.970;2023-03-23T16:38:00;15.40;4.80
2409;DHT22;8463;48.094;7.970;2023-03-23T16:40:26;15.40;3.70
2409;DHT22;8463;48.094;7.970;2023-03-23T16:42:52;15.50;4.20
2409;DHT22;8463;48.094;7.970;2023-03-23T16:45:21;15.50;1.00
2409;DHT22;8463;48.094;7.970;2023-03-23T16:47:48;15.50;1.70
2409;DHT22;8463;48.094;7.970;2023-03-23T16:50:17;15.50;2.20
2409;DHT22;8463;48.094;7.970;2023-03-23T16:52:44;15.50;2.40
2409;DHT22;8463;48.094;7.970;2023-03-23T16:55:12;15.50;2.20
2409;DHT22;8463;48.094;7.970;2023-03-23T16:57:39;15.50;2.50
2409;DHT22;8463;48.094;7.970;2023-03-23T17:00:08;15.60;1.00
2409;DHT22;8463;48.094;7.970;2023-03-23T17:02:35;15.60;1.00
2409;DHT22;8463;48.094;7.970;2023-03-23T17:05:03;15.60;1.00
2409;DHT22;8463;48.094;7.970;2023-03-23T17:07:31;15.50;1.00
2409;DHT22;8463;48.094;7.970;2023-03-23T17:09:57;15.50;1.00
2409;DHT22;8463;48.094;7.970;2023-03-23T17:12:23;15.50;1.00
2409;DHT22;8463;48.094;7.970;2023-03-23T17:14:51;15.70;1.00
2409;DHT22;8463;48.094;7.970;2023-03-23T17:17:17;15.80;1.00
2409;DHT22;8463;48.094;7.970;2023-03-23T17:19:43;15.70;1.00
2409;DHT22;8463;48.094;7.970;2023-03-23T17:22:08;15.80;1.00
2409;DHT22;8463;48.094;7.970;2023-03-23T17:24:34;15.80;1.00
2409;DHT22;8463;48.094;7.970;2023-03-23T17:29:26;15.90;1.00
2409;DHT22;8463;48.094;7.970;2023-03-23T17:31:51;15.80;1.00
2409;DHT22;8463;48.094;7.970;2023-03-23T17:34:17;15.80;1.00
2409;DHT22;8463;48.094;7.970;2023-03-23T17:36:43;15.80;1.00
2409;DHT22;8463;48.094;7.970;2023-03-23T17:39:09;15.80;1.00
2409;DHT22;8463;48.094;7.970;2023-03-23T17:41:35;15.70;1.00
2409;DHT22;8463;48.094;7.970;2023-03-23T17:44:00;15.70;1.00
2409;DHT22;8463;48.094;7.970;2023-03-23T17:46:26;15.60;1.00
2409;DHT22;8463;48.094;7.970;2023-03-23T17:48:52;15.50;2.00
2409;DHT22;8463;48.094;7.970;2023-03-23T17:51:18;15.50;2.90
2409;DHT22;8463;48.094;7.970;2023-03-23T17:53:44;15.50;3.30
2409;DHT22;8463;48.094;7.970;2023-03-23T17:56:10;15.50;5.60
2409;DHT22;8463;48.094;7.970;2023-03-23T17:58:36;15.30;6.50
2409;DHT22;8463;48.094;7.970;2023-03-23T18:01:02;15.30;7.00
2409;DHT22;8463;48.094;7.970;2023-03-23T18:03:28;15.30;7.70
2409;DHT22;8463;48.094;7.970;2023-03-23T18:06:02;15.20;8.00
2409;DHT22;8463;48.094;7.970;2023-03-23T18:08:29;15.20;9.00
2409;DHT22;8463;48.094;7.970;2023-03-23T18:10:58;15.10;9.30
2409;DHT22;8463;48.094;7.970;2023-03-23T18:13:26;15.10;9.70
2409;DHT22;8463;48.094;7.970;2023-03-23T18:15:56;15.00;12.00
2409;DHT22;8463;48.094;7.970;2023-03-23T18:18:23;14.90;12.00
2409;DHT22;8463;48.094;7.970;2023-03-23T18:21:01;14.90;12.80
2409;DHT22;8463;48.094;7.970;2023-03-23T18:23:30;14.90;13.60
2409;DHT22;8463;48.094;7.970;2023-03-23T18:26:01;14.90;14.60
2409;DHT22;8463;48.094;7.970;2023-03-23T18:28:27;14.80;14.50
2409;DHT22;8463;48.094;7.970;2023-03-23T18:31:02;14.70;16.00
2409;DHT22;8463;48.094;7.970;2023-03-23T18:33:28;14.40;17.70